Time;durP1;ratioP1;P1;durP2;ratioP2;P2;SDS_P1;SDS_P2;PMS_P1;PMS_P2;Temp;Humidity;BMP_temperature;BMP_pressure;BME280_temperature;BME280_humidity;BME280_pressure;Samples;Min_cycle;Max_cycle;Signal;HPM_P1;HPM_P2
2022/03/10 21:15:52;;;;;;;;;;;11.90;91.10;;;;;;5070294;28;20770;-44
2022/03/10 21:18:19;;;;;;;12.38;9.63;;;11.80;91.40;;;;;;5055842;28;19921;-44
2022/03/10 21:20:46;;;;;;;14.63;9.73;;;11.90;91.30;;;;;;5050245;28;20037;-43
2022/03/10 21:23:13;;;;;;;15.65;10.65;;;11.90;91.20;;;;;;5048974;28;20120;-41
2022/03/10 21:25:39;;;;;;;14.88;10.75;;;11.90;91.20;;;;;;5050247;28;20033;-41
2022/03/10 21:28:09;;;;;;;15.77;10.40;;;12.00;91.10;;;;;;5049050;28;20458;-43
2022/03/10 21:30:36;;;;;;;13.32;9.88;;;12.10;91.10;;;;;;5052940;28;20036;-41
2022/03/10 21:33:02;;;;;;;11.13;9.18;;;12.10;91.10;;;;;;5051001;28;20485;-46
2022/03/10 21:35:30;;;;;;;13.68;10.10;;;12.10;90.90;;;;;;5050328;28;20037;-45
2022/03/10 21:37:58;;;;;;;13.13;9.90;;;12.20;91.00;;;;;;5050043;28;20507;-43
2022/03/10 21:40:24;;;;;;;14.52;9.68;;;12.20;90.90;;;;;;5053858;28;20045;-44
2022/03/10 21:42:54;;;;;;;15.82;9.45;;;12.20;90.90;;;;;;5049910;28;20133;-45
2022/03/10 21:45:21;;;;;;;12.35;9.32;;;12.30;90.80;;;;;;5049988;28;20142;-42
2022/03/10 21:47:48;;;;;;;13.45;9.95;;;12.30;90.80;;;;;;5049892;28;20054;-46
2022/03/10 21:50:16;;;;;;;12.10;9.85;;;12.30;90.80;;;;;;5049923;28;20502;-47
2022/03/10 21:53:03;;;;;;;16.27;10.38;;;12.30;90.70;;;;;;5049746;28;20088;-49
2022/03/10 21:55:30;;;;;;;17.15;10.50;;;12.30;90.80;;;;;;5049642;28;20392;-45
2022/03/10 21:58:00;;;;;;;13.45;10.38;;;12.30;90.70;;;;;;5049702;28;20048;-45
2022/03/10 22:00:31;;;;;;;15.07;10.43;;;12.30;90.80;;;;;;5048369;28;20415;-43
2022/03/10 22:02:58;;;;;;;14.98;10.80;;;12.30;90.70;;;;;;5049525;28;20495;-44
2022/03/10 22:05:28;;;;;;;12.38;10.60;;;12.30;90.80;;;;;;5049881;28;20037;-41
2022/03/10 22:07:55;;;;;;;15.02;11.02;;;12.30;90.90;;;;;;5049819;28;20518;-47
2022/03/10 22:10:23;;;;;;;15.65;11.57;;;12.20;90.80;;;;;;5050405;28;20448;-43
2022/03/10 22:12:50;;;;;;;17.27;11.38;;;12.30;90.80;;;;;;5049791;28;20125;-42
2022/03/10 22:15:17;;;;;;;13.45;11.25;;;12.20;90.80;;;;;;5051780;28;20054;-45
2022/03/10 22:17:51;;;;;;;14.73;11.45;;;12.20;90.80;;;;;;5049616;28;20045;-45
2022/03/10 22:20:17;;;;;;;19.88;11.20;;;12.20;91.00;;;;;;5049296;28;20477;-45
2022/03/10 22:22:44;;;;;;;14.95;10.90;;;12.20;91.00;;;;;;5049438;28;20094;-45
2022/03/10 22:25:11;;;;;;;13.98;10.55;;;12.20;91.10;;;;;;5047591;28;20045;-43
2022/03/10 22:27:39;;;;;;;14.55;11.10;;;12.20;91.00;;;;;;5035650;28;20080;-47
2022/03/10 22:30:06;;;;;;;16.77;10.90;;;12.20;90.90;;;;;;5035747;28;20485;-42
2022/03/10 22:32:33;;;;;;;14.90;11.23;;;12.20;91.00;;;;;;5036580;28;20041;-46
2022/03/10 22:35:00;;;;;;;14.18;10.90;;;12.10;91.00;;;;;;5032314;28;20366;-44
2022/03/10 22:37:27;;;;;;;15.75;10.30;;;12.10;91.00;;;;;;5033062;28;20042;-47
2022/03/10 22:39:56;;;;;;;20.38;11.02;;;12.10;90.80;;;;;;5034170;28;20041;-47
2022/03/10 22:42:23;;;;;;;12.63;10.63;;;12.10;90.90;;;;;;5035547;28;20041;-48
2022/03/10 22:44:49;;;;;;;16.83;10.45;;;12.10;90.90;;;;;;5036941;28;20044;-46
2022/03/10 22:47:16;;;;;;;13.93;11.00;;;12.10;90.80;;;;;;5035566;28;20044;-46
2022/03/10 22:55:14;;;;;;;17.02;10.57;;;12.00;90.70;;;;;;5032403;28;20452;-43
2022/03/10 22:57:44;;;;;;;15.35;10.63;;;12.00;90.70;;;;;;5034067;28;20044;-47
2022/03/10 23:00:11;;;;;;;13.00;9.95;;;12.00;90.60;;;;;;5037879;28;20040;-49
2022/03/10 23:02:38;;;;;;;14.35;10.52;;;12.00;90.60;;;;;;5035383;28;20450;-44
2022/03/10 23:07:50;;;;;;;13.15;10.95;;;11.90;90.50;;;;;;5032737;28;20056;-44
2022/03/10 23:10:17;;;;;;;15.70;11.07;;;11.90;90.60;;;;;;5035029;28;20053;-46
2022/03/10 23:12:44;;;;;;;14.40;10.95;;;11.90;90.60;;;;;;5034975;28;20047;-49
2022/03/10 23:15:11;;;;;;;14.40;11.15;;;11.90;90.60;;;;;;5034874;28;20057;-41
